sensor_id;sensor_type;location;lat;lon;timestamp;P1;durP1;ratioP1;P2;durP2;ratioP2
37841;SDS011;23682;53.508;10.476;2022-10-17T00:00:37;9.13;;;3.88;;
37841;SDS011;23682;53.508;10.476;2022-10-17T00:03:04;10.88;;;4.07;;
37841;SDS011;23682;53.508;10.476;2022-10-17T00:05:31;8.57;;;3.58;;
37841;SDS011;23682;53.508;10.476;2022-10-17T00:07:58;7.88;;;3.60;;
37841;SDS011;23682;53.508;10.476;2022-10-17T00:10:25;11.38;;;4.38;;
37841;SDS011;23682;53.508;10.476;2022-10-17T00:12:52;5.95;;;3.50;;
37841;SDS011;23682;53.508;10.476;2022-10-17T00:15:19;4.80;;;3.55;;
37841;SDS011;23682;53.508;10.476;2022-10-17T00:17:47;5.20;;;3.47;;
37841;SDS011;23682;53.508;10.476;2022-10-17T00:20:14;6.60;;;3.65;;
37841;SDS011;23682;53.508;10.476;2022-10-17T00:22:41;9.38;;;4.32;;
37841;SDS011;23682;53.508;10.476;2022-10-17T00:25:08;9.20;;;3.78;;
37841;SDS011;23682;53.508;10.476;2022-10-17T00:27:35;6.45;;;4.15;;
37841;SDS011;23682;53.508;10.476;2022-10-17T00:30:04;5.90;;;4.53;;
37841;SDS011;23682;53.508;10.476;2022-10-17T00:32:32;6.88;;;3.90;;
37841;SDS011;23682;53.508;10.476;2022-10-17T00:34:59;8.68;;;4.25;;
37841;SDS011;23682;53.508;10.476;2022-10-17T00:37:26;7.63;;;4.25;;
37841;SDS011;23682;53.508;10.476;2022-10-17T00:39:55;6.25;;;3.90;;
37841;SDS011;23682;53.508;10.476;2022-10-17T00:42:22;8.18;;;4.07;;
37841;SDS011;23682;53.508;10.476;2022-10-17T00:47:47;7.05;;;3.90;;
37841;SDS011;23682;53.508;10.476;2022-10-17T00:50:20;6.95;;;4.40;;
37841;SDS011;23682;53.508;10.476;2022-10-17T00:52:48;7.15;;;4.00;;
37841;SDS011;23682;53.508;10.476;2022-10-17T00:55:17;4.57;;;4.15;;
37841;SDS011;23682;53.508;10.476;2022-10-17T00:57:48;6.57;;;4.20;;
37841;SDS011;23682;53.508;10.476;2022-10-17T01:00:17;6.07;;;4.00;;
37841;SDS011;23682;53.508;10.476;2022-10-17T01:02:45;9.25;;;4.25;;
37841;SDS011;23682;53.508;10.476;2022-10-17T01:05:12;9.60;;;3.70;;
37841;SDS011;23682;53.508;10.476;2022-10-17T01:07:41;7.57;;;4.05;;
37841;SDS011;23682;53.508;10.476;2022-10-17T01:10:09;8.02;;;4.10;;
37841;SDS011;23682;53.508;10.476;2022-10-17T01:15:28;7.72;;;4.35;;
37841;SDS011;23682;53.508;10.476;2022-10-17T01:20:38;6.32;;;4.50;;
37841;SDS011;23682;53.508;10.476;2022-10-17T01:31:27;5.75;;;3.85;;
37841;SDS011;23682;53.508;10.476;2022-10-17T01:34:04;4.03;;;3.63;;
37841;SDS011;23682;53.508;10.476;2022-10-17T01:37:07;6.15;;;3.72;;
37841;SDS011;23682;53.508;10.476;2022-10-17T01:39:48;7.88;;;3.53;;
37841;SDS011;23682;53.508;10.476;2022-10-17T01:42:23;7.80;;;3.60;;
37841;SDS011;23682;53.508;10.476;2022-10-17T01:47:38;6.38;;;3.40;;
37841;SDS011;23682;53.508;10.476;2022-10-17T01:50:12;8.57;;;3.22;;
37841;SDS011;23682;53.508;10.476;2022-10-17T01:52:54;6.18;;;3.80;;
37841;SDS011;23682;53.508;10.476;2022-10-17T01:55:30;6.38;;;3.38;;
37841;SDS011;23682;53.508;10.476;2022-10-17T01:58:02;4.63;;;3.28;;
37841;SDS011;23682;53.508;10.476;2022-10-17T02:00:34;5.95;;;3.47;;
37841;SDS011;23682;53.508;10.476;2022-10-17T02:03:04;7.15;;;3.40;;
37841;SDS011;23682;53.508;10.476;2022-10-17T02:05:37;5.13;;;3.40;;
37841;SDS011;23682;53.508;10.476;2022-10-17T02:08:06;7.45;;;3.85;;
37841;SDS011;23682;53.508;10.476;2022-10-17T02:15:58;6.68;;;3.50;;
37841;SDS011;23682;53.508;10.476;2022-10-17T02:18:56;6.75;;;3.65;;
37841;SDS011;23682;53.508;10.476;2022-10-17T02:24:17;5.43;;;3.40;;
37841;SDS011;23682;53.508;10.476;2022-10-17T02:29:42;8.30;;;3.33;;
37841;SDS011;23682;53.508;10.476;2022-10-17T02:32:20;9.75;;;4.57;;
37841;SDS011;23682;53.508;10.476;2022-10-17T02:34:54;3.13;;;2.83;;
37841;SDS011;23682;53.508;10.476;2022-10-17T02:37:26;5.00;;;3.40;;
37841;SDS011;23682;53.508;10.476;2022-10-17T02:39:57;6.38;;;2.97;;
37841;SDS011;23682;53.508;10.476;2022-10-17T02:42:25;3.55;;;2.92;;
37841;SDS011;23682;53.508;10.476;2022-10-17T02:44:56;5.63;;;3.30;;
37841;SDS011;23682;53.508;10.476;2022-10-17T02:47:27;5.03;;;3.25;;
37841;SDS011;23682;53.508;10.476;2022-10-17T02:49:55;6.50;;;3.42;;
37841;SDS011;23682;53.508;10.476;2022-10-17T02:52:28;5.72;;;2.90;;
37841;SDS011;23682;53.508;10.476;2022-10-17T02:55:05;3.70;;;2.95;;
37841;SDS011;23682;53.508;10.476;2022-10-17T02:58:09;4.55;;;2.42;;
37841;SDS011;23682;53.508;10.476;2022-10-17T03:00:41;5.97;;;3.05;;
37841;SDS011;23682;53.508;10.476;2022-10-17T03:03:19;6.93;;;2.90;;
37841;SDS011;23682;53.508;10.476;2022-10-17T03:05:49;5.82;;;2.70;;
37841;SDS011;23682;53.508;10.476;2022-10-17T03:08:20;4.15;;;2.53;;
37841;SDS011;23682;53.508;10.476;2022-10-17T03:10:48;5.45;;;2.70;;
37841;SDS011;23682;53.508;10.476;2022-10-17T03:13:15;5.53;;;2.30;;
37841;SDS011;23682;53.508;10.476;2022-10-17T03:15:43;5.60;;;2.50;;
37841;SDS011;23682;53.508;10.476;2022-10-17T03:18:10;6.57;;;2.60;;
37841;SDS011;23682;53.508;10.476;2022-10-17T03:20:37;6.57;;;2.60;;
37841;SDS011;23682;53.508;10.476;2022-10-17T03:23:04;5.50;;;2.45;;
37841;SDS011;23682;53.508;10.476;2022-10-17T03:25:31;12.13;;;2.55;;
37841;SDS011;23682;53.508;10.476;2022-10-17T03:27:58;4.07;;;2.22;;
37841;SDS011;23682;53.508;10.476;2022-10-17T03:30:26;5.55;;;2.50;;
37841;SDS011;23682;53.508;10.476;2022-10-17T03:32:54;5.00;;;2.35;;
37841;SDS011;23682;53.508;10.476;2022-10-17T03:35:23;10.23;;;2.58;;
37841;SDS011;23682;53.508;10.476;2022-10-17T03:37:50;6.63;;;2.47;;
37841;SDS011;23682;53.508;10.476;2022-10-17T03:40:20;4.80;;;2.20;;
37841;SDS011;23682;53.508;10.476;2022-10-17T03:42:46;4.75;;;2.28;;
37841;SDS011;23682;53.508;10.476;2022-10-17T03:45:13;5.95;;;2.50;;
37841;SDS011;23682;53.508;10.476;2022-10-17T03:47:40;3.25;;;2.30;;
37841;SDS011;23682;53.508;10.476;2022-10-17T03:50:08;3.78;;;2.58;;
37841;SDS011;23682;53.508;10.476;2022-10-17T03:52:36;4.00;;;2.50;;
37841;SDS011;23682;53.508;10.476;2022-10-17T03:55:03;5.10;;;3.13;;
37841;SDS011;23682;53.508;10.476;2022-10-17T03:57:32;3.63;;;2.53;;
37841;SDS011;23682;53.508;10.476;2022-10-17T04:00:00;5.30;;;2.78;;
37841;SDS011;23682;53.508;10.476;2022-10-17T04:02:28;9.30;;;2.80;;
37841;SDS011;23682;53.508;10.476;2022-10-17T04:04:56;4.88;;;3.00;;
37841;SDS011;23682;53.508;10.476;2022-10-17T04:07:23;5.82;;;3.08;;
37841;SDS011;23682;53.508;10.476;2022-10-17T04:09:56;4.47;;;3.17;;
37841;SDS011;23682;53.508;10.476;2022-10-17T04:12:23;4.35;;;2.85;;
37841;SDS011;23682;53.508;10.476;2022-10-17T04:14:50;4.55;;;3.08;;
37841;SDS011;23682;53.508;10.476;2022-10-17T04:17:19;4.93;;;2.90;;
37841;SDS011;23682;53.508;10.476;2022-10-17T04:19:47;5.15;;;3.13;;
37841;SDS011;23682;53.508;10.476;2022-10-17T04:22:16;10.23;;;4.35;;
37841;SDS011;23682;53.508;10.476;2022-10-17T04:24:43;6.75;;;3.10;;
37841;SDS011;23682;53.508;10.476;2022-10-17T04:27:26;8.40;;;3.30;;
37841;SDS011;23682;53.508;10.476;2022-10-17T04:29:52;3.53;;;2.83;;
37841;SDS011;23682;53.508;10.476;2022-10-17T04:32:22;5.13;;;2.85;;
37841;SDS011;23682;53.508;10.476;2022-10-17T04:35:20;3.47;;;2.88;;
37841;SDS011;23682;53.508;10.476;2022-10-17T04:37:53;4.35;;;2.90;;
37841;SDS011;23682;53.508;10.476;2022-10-17T04:40:20;4.55;;;2.70;;
37841;SDS011;23682;53.508;10.476;2022-10-17T04:42:49;3.33;;;2.53;;
37841;SDS011;23682;53.508;10.476;2022-10-17T04:45:20;3.58;;;2.75;;
37841;SDS011;23682;53.508;10.476;2022-10-17T04:47:55;4.10;;;2.85;;
37841;SDS011;23682;53.508;10.476;2022-10-17T04:50:22;5.55;;;2.50;;
37841;SDS011;23682;53.508;10.476;2022-10-17T04:53:09;7.07;;;3.10;;
37841;SDS011;23682;53.508;10.476;2022-10-17T04:55:36;3.78;;;2.60;;
37841;SDS011;23682;53.508;10.476;2022-10-17T04:58:04;3.45;;;2.38;;
37841;SDS011;23682;53.508;10.476;2022-10-17T05:00:31;3.05;;;2.40;;
37841;SDS011;23682;53.508;10.476;2022-10-17T05:03:10;3.72;;;2.30;;
37841;SDS011;23682;53.508;10.476;2022-10-17T05:05:37;3.42;;;2.70;;
37841;SDS011;23682;53.508;10.476;2022-10-17T05:08:06;5.75;;;2.63;;
37841;SDS011;23682;53.508;10.476;2022-10-17T05:10:37;6.03;;;2.60;;
37841;SDS011;23682;53.508;10.476;2022-10-17T05:13:06;3.50;;;2.00;;
37841;SDS011;23682;53.508;10.476;2022-10-17T05:15:34;5.20;;;2.20;;
37841;SDS011;23682;53.508;10.476;2022-10-17T05:18:02;4.35;;;2.40;;
37841;SDS011;23682;53.508;10.476;2022-10-17T05:20:30;5.07;;;2.33;;
37841;SDS011;23682;53.508;10.476;2022-10-17T05:22:58;5.72;;;2.42;;
37841;SDS011;23682;53.508;10.476;2022-10-17T05:25:30;5.00;;;2.42;;
37841;SDS011;23682;53.508;10.476;2022-10-17T05:27:57;4.53;;;2.55;;
37841;SDS011;23682;53.508;10.476;2022-10-17T05:30:24;5.57;;;2.42;;
37841;SDS011;23682;53.508;10.476;2022-10-17T05:32:57;3.40;;;2.15;;
37841;SDS011;23682;53.508;10.476;2022-10-17T05:35:24;3.65;;;2.50;;
37841;SDS011;23682;53.508;10.476;2022-10-17T05:37:51;4.70;;;2.30;;
37841;SDS011;23682;53.508;10.476;2022-10-17T05:40:19;7.03;;;2.60;;
37841;SDS011;23682;53.508;10.476;2022-10-17T05:42:49;4.10;;;2.50;;
37841;SDS011;23682;53.508;10.476;2022-10-17T05:45:17;5.90;;;2.75;;
37841;SDS011;23682;53.508;10.476;2022-10-17T05:47:44;4.60;;;2.65;;
37841;SDS011;23682;53.508;10.476;2022-10-17T05:50:11;3.30;;;2.45;;
37841;SDS011;23682;53.508;10.476;2022-10-17T05:52:59;4.53;;;2.50;;
37841;SDS011;23682;53.508;10.476;2022-10-17T05:55:27;3.35;;;2.30;;
37841;SDS011;23682;53.508;10.476;2022-10-17T05:57:53;4.15;;;2.55;;
37841;SDS011;23682;53.508;10.476;2022-10-17T06:00:23;4.53;;;2.85;;
37841;SDS011;23682;53.508;10.476;2022-10-17T06:02:55;2.60;;;2.40;;
37841;SDS011;23682;53.508;10.476;2022-10-17T06:05:23;3.10;;;2.40;;
37841;SDS011;23682;53.508;10.476;2022-10-17T06:07:50;4.10;;;2.60;;
37841;SDS011;23682;53.508;10.476;2022-10-17T06:10:19;3.75;;;2.58;;
37841;SDS011;23682;53.508;10.476;2022-10-17T06:12:46;4.10;;;2.90;;
37841;SDS011;23682;53.508;10.476;2022-10-17T06:15:14;3.33;;;2.50;;
37841;SDS011;23682;53.508;10.476;2022-10-17T06:17:45;6.32;;;2.95;;
37841;SDS011;23682;53.508;10.476;2022-10-17T06:20:12;3.20;;;2.40;;
37841;SDS011;23682;53.508;10.476;2022-10-17T06:22:39;2.67;;;2.45;;
37841;SDS011;23682;53.508;10.476;2022-10-17T06:25:12;4.65;;;2.70;;
37841;SDS011;23682;53.508;10.476;2022-10-17T06:27:39;3.53;;;2.60;;
37841;SDS011;23682;53.508;10.476;2022-10-17T06:30:06;4.78;;;2.30;;
37841;SDS011;23682;53.508;10.476;2022-10-17T06:32:34;4.45;;;2.30;;
37841;SDS011;23682;53.508;10.476;2022-10-17T06:35:00;5.03;;;2.42;;
37841;SDS011;23682;53.508;10.476;2022-10-17T06:37:31;5.57;;;2.63;;
37841;SDS011;23682;53.508;10.476;2022-10-17T06:40:05;3.70;;;2.47;;
37841;SDS011;23682;53.508;10.476;2022-10-17T06:42:35;3.25;;;2.80;;
37841;SDS011;23682;53.508;10.476;2022-10-17T06:45:11;3.60;;;2.50;;
37841;SDS011;23682;53.508;10.476;2022-10-17T06:47:51;3.40;;;2.58;;
37841;SDS011;23682;53.508;10.476;2022-10-17T06:50:33;6.00;;;2.50;;
37841;SDS011;23682;53.508;10.476;2022-10-17T06:55:57;3.72;;;2.35;;
37841;SDS011;23682;53.508;10.476;2022-10-17T07:01:23;4.93;;;2.40;;
37841;SDS011;23682;53.508;10.476;2022-10-17T07:03:55;6.63;;;2.45;;
37841;SDS011;23682;53.508;10.476;2022-10-17T07:06:22;6.18;;;2.20;;
37841;SDS011;23682;53.508;10.476;2022-10-17T07:08:54;2.28;;;2.08;;
37841;SDS011;23682;53.508;10.476;2022-10-17T07:11:21;4.72;;;2.30;;
37841;SDS011;23682;53.508;10.476;2022-10-17T07:13:50;3.97;;;2.10;;
37841;SDS011;23682;53.508;10.476;2022-10-17T07:16:18;6.43;;;2.22;;
37841;SDS011;23682;53.508;10.476;2022-10-17T07:18:51;3.63;;;1.90;;
37841;SDS011;23682;53.508;10.476;2022-10-17T07:21:18;2.75;;;1.90;;
37841;SDS011;23682;53.508;10.476;2022-10-17T07:23:45;2.55;;;2.10;;
37841;SDS011;23682;53.508;10.476;2022-10-17T07:26:13;10.02;;;2.80;;
37841;SDS011;23682;53.508;10.476;2022-10-17T07:28:42;2.58;;;2.15;;
37841;SDS011;23682;53.508;10.476;2022-10-17T07:31:23;6.32;;;3.20;;
37841;SDS011;23682;53.508;10.476;2022-10-17T07:33:50;2.25;;;1.80;;
37841;SDS011;23682;53.508;10.476;2022-10-17T07:36:18;4.03;;;2.15;;
37841;SDS011;23682;53.508;10.476;2022-10-17T07:38:45;3.13;;;1.90;;
37841;SDS011;23682;53.508;10.476;2022-10-17T07:41:13;2.17;;;1.98;;
37841;SDS011;23682;53.508;10.476;2022-10-17T07:43:47;5.22;;;2.42;;
37841;SDS011;23682;53.508;10.476;2022-10-17T07:46:17;4.43;;;2.42;;
37841;SDS011;23682;53.508;10.476;2022-10-17T07:48:44;3.40;;;2.20;;
37841;SDS011;23682;53.508;10.476;2022-10-17T07:51:11;2.75;;;2.10;;
37841;SDS011;23682;53.508;10.476;2022-10-17T07:53:38;3.00;;;2.05;;
37841;SDS011;23682;53.508;10.476;2022-10-17T07:56:10;3.40;;;1.98;;
37841;SDS011;23682;53.508;10.476;2022-10-17T07:58:37;2.97;;;1.90;;
37841;SDS011;23682;53.508;10.476;2022-10-17T08:01:06;2.38;;;2.00;;
37841;SDS011;23682;53.508;10.476;2022-10-17T08:03:40;5.20;;;2.10;;
37841;SDS011;23682;53.508;10.476;2022-10-17T08:06:09;7.03;;;2.13;;
37841;SDS011;23682;53.508;10.476;2022-10-17T08:08:36;2.28;;;2.00;;
37841;SDS011;23682;53.508;10.476;2022-10-17T08:11:04;2.15;;;2.00;;
37841;SDS011;23682;53.508;10.476;2022-10-17T08:13:35;6.82;;;1.95;;
37841;SDS011;23682;53.508;10.476;2022-10-17T08:16:04;5.35;;;2.15;;
37841;SDS011;23682;53.508;10.476;2022-10-17T08:18:37;2.60;;;1.75;;
37841;SDS011;23682;53.508;10.476;2022-10-17T08:21:05;4.88;;;2.00;;
37841;SDS011;23682;53.508;10.476;2022-10-17T08:23:34;4.20;;;1.88;;
37841;SDS011;23682;53.508;10.476;2022-10-17T08:26:02;5.95;;;2.10;;
37841;SDS011;23682;53.508;10.476;2022-10-17T08:28:32;3.70;;;2.03;;
37841;SDS011;23682;53.508;10.476;2022-10-17T08:31:08;2.28;;;1.77;;
37841;SDS011;23682;53.508;10.476;2022-10-17T08:33:37;6.47;;;2.10;;
37841;SDS011;23682;53.508;10.476;2022-10-17T08:36:04;3.17;;;1.83;;
37841;SDS011;23682;53.508;10.476;2022-10-17T08:38:32;4.30;;;1.75;;
37841;SDS011;23682;53.508;10.476;2022-10-17T08:41:03;2.60;;;2.20;;
37841;SDS011;23682;53.508;10.476;2022-10-17T08:46:33;2.80;;;2.00;;
37841;SDS011;23682;53.508;10.476;2022-10-17T08:49:03;3.63;;;1.90;;
37841;SDS011;23682;53.508;10.476;2022-10-17T08:51:39;2.67;;;1.88;;
37841;SDS011;23682;53.508;10.476;2022-10-17T08:54:16;4.47;;;1.95;;
37841;SDS011;23682;53.508;10.476;2022-10-17T08:56:52;2.40;;;1.73;;
37841;SDS011;23682;53.508;10.476;2022-10-17T08:59:22;5.20;;;2.10;;
37841;SDS011;23682;53.508;10.476;2022-10-17T09:02:05;4.47;;;2.13;;
37841;SDS011;23682;53.508;10.476;2022-10-17T09:04:58;3.53;;;1.90;;
37841;SDS011;23682;53.508;10.476;2022-10-17T09:07:44;4.65;;;2.00;;
37841;SDS011;23682;53.508;10.476;2022-10-17T09:21:38;3.95;;;1.88;;
37841;SDS011;23682;53.508;10.476;2022-10-17T09:24:13;3.92;;;1.98;;
37841;SDS011;23682;53.508;10.476;2022-10-17T09:27:04;5.28;;;2.00;;
37841;SDS011;23682;53.508;10.476;2022-10-17T09:29:40;2.17;;;1.75;;
37841;SDS011;23682;53.508;10.476;2022-10-17T09:32:20;8.70;;;1.80;;
37841;SDS011;23682;53.508;10.476;2022-10-17T09:34:50;6.57;;;1.92;;
37841;SDS011;23682;53.508;10.476;2022-10-17T09:37:18;5.93;;;1.88;;
37841;SDS011;23682;53.508;10.476;2022-10-17T09:39:52;2.88;;;1.70;;
37841;SDS011;23682;53.508;10.476;2022-10-17T09:42:19;9.57;;;2.45;;
37841;SDS011;23682;53.508;10.476;2022-10-17T09:47:43;4.30;;;2.00;;
37841;SDS011;23682;53.508;10.476;2022-10-17T09:50:27;3.08;;;1.90;;
37841;SDS011;23682;53.508;10.476;2022-10-17T09:53:17;4.43;;;1.90;;
37841;SDS011;23682;53.508;10.476;2022-10-17T09:55:59;2.78;;;1.77;;
37841;SDS011;23682;53.508;10.476;2022-10-17T09:58:41;3.13;;;1.80;;
37841;SDS011;23682;53.508;10.476;2022-10-17T10:01:29;3.58;;;1.88;;
37841;SDS011;23682;53.508;10.476;2022-10-17T10:04:13;3.33;;;2.10;;
37841;SDS011;23682;53.508;10.476;2022-10-17T10:07:01;3.65;;;1.90;;
37841;SDS011;23682;53.508;10.476;2022-10-17T10:09:30;7.30;;;2.42;;
37841;SDS011;23682;53.508;10.476;2022-10-17T10:12:03;4.07;;;1.90;;
37841;SDS011;23682;53.508;10.476;2022-10-17T10:14:33;10.85;;;2.50;;
37841;SDS011;23682;53.508;10.476;2022-10-17T10:17:03;5.75;;;2.10;;
37841;SDS011;23682;53.508;10.476;2022-10-17T10:19:36;3.03;;;2.00;;
37841;SDS011;23682;53.508;10.476;2022-10-17T10:22:25;25.42;;;4.40;;
37841;SDS011;23682;53.508;10.476;2022-10-17T10:27:36;13.27;;;2.80;;
37841;SDS011;23682;53.508;10.476;2022-10-17T10:30:06;53.00;;;6.47;;
37841;SDS011;23682;53.508;10.476;2022-10-17T10:32:44;45.97;;;5.38;;
37841;SDS011;23682;53.508;10.476;2022-10-17T10:37:55;26.70;;;3.90;;
37841;SDS011;23682;53.508;10.476;2022-10-17T10:46:00;90.88;;;10.90;;
37841;SDS011;23682;53.508;10.476;2022-10-17T10:48:33;43.22;;;6.25;;
37841;SDS011;23682;53.508;10.476;2022-10-17T10:51:11;28.88;;;5.07;;
37841;SDS011;23682;53.508;10.476;2022-10-17T10:56:28;6.95;;;2.28;;
37841;SDS011;23682;53.508;10.476;2022-10-17T10:59:02;27.08;;;3.97;;
37841;SDS011;23682;53.508;10.476;2022-10-17T11:07:13;5.15;;;2.20;;
37841;SDS011;23682;53.508;10.476;2022-10-17T11:10:13;4.53;;;2.33;;
37841;SDS011;23682;53.508;10.476;2022-10-17T11:12:53;22.50;;;4.05;;
37841;SDS011;23682;53.508;10.476;2022-10-17T11:15:30;8.70;;;2.45;;
37841;SDS011;23682;53.508;10.476;2022-10-17T11:18:28;47.55;;;6.13;;
37841;SDS011;23682;53.508;10.476;2022-10-17T11:21:18;29.13;;;4.82;;
37841;SDS011;23682;53.508;10.476;2022-10-17T11:27:02;41.80;;;5.82;;
37841;SDS011;23682;53.508;10.476;2022-10-17T11:29:29;12.80;;;3.13;;
37841;SDS011;23682;53.508;10.476;2022-10-17T11:32:02;9.00;;;2.25;;
37841;SDS011;23682;53.508;10.476;2022-10-17T11:34:35;4.07;;;2.07;;
37841;SDS011;23682;53.508;10.476;2022-10-17T11:37:17;4.47;;;2.10;;
37841;SDS011;23682;53.508;10.476;2022-10-17T11:42:54;45.70;;;6.13;;
37841;SDS011;23682;53.508;10.476;2022-10-17T11:45:25;6.53;;;2.55;;
37841;SDS011;23682;53.508;10.476;2022-10-17T11:47:57;4.03;;;2.20;;
37841;SDS011;23682;53.508;10.476;2022-10-17T11:50:30;7.22;;;2.05;;
37841;SDS011;23682;53.508;10.476;2022-10-17T11:53:24;127.95;;;13.40;;
37841;SDS011;23682;53.508;10.476;2022-10-17T11:55:57;25.60;;;4.07;;
37841;SDS011;23682;53.508;10.476;2022-10-17T12:03:57;5.60;;;2.13;;
37841;SDS011;23682;53.508;10.476;2022-10-17T12:12:22;4.03;;;2.10;;
37841;SDS011;23682;53.508;10.476;2022-10-17T12:17:53;12.70;;;2.70;;
37841;SDS011;23682;53.508;10.476;2022-10-17T12:20:29;18.13;;;4.78;;
37841;SDS011;23682;53.508;10.476;2022-10-17T12:25:36;11.43;;;3.47;;
37841;SDS011;23682;53.508;10.476;2022-10-17T12:31:09;39.25;;;5.55;;
37841;SDS011;23682;53.508;10.476;2022-10-17T12:38:48;32.55;;;5.07;;
37841;SDS011;23682;53.508;10.476;2022-10-17T12:46:56;13.52;;;2.90;;
37841;SDS011;23682;53.508;10.476;2022-10-17T12:54:50;8.05;;;2.50;;
37841;SDS011;23682;53.508;10.476;2022-10-17T12:57:47;6.65;;;2.30;;
37841;SDS011;23682;53.508;10.476;2022-10-17T13:03:34;6.68;;;2.63;;
37841;SDS011;23682;53.508;10.476;2022-10-17T13:06:14;9.15;;;3.15;;
37841;SDS011;23682;53.508;10.476;2022-10-17T13:08:47;5.75;;;2.80;;
37841;SDS011;23682;53.508;10.476;2022-10-17T13:11:29;5.35;;;2.88;;
37841;SDS011;23682;53.508;10.476;2022-10-17T13:13:59;4.10;;;2.70;;
37841;SDS011;23682;53.508;10.476;2022-10-17T13:16:32;7.03;;;3.03;;
37841;SDS011;23682;53.508;10.476;2022-10-17T13:19:02;9.75;;;3.60;;
37841;SDS011;23682;53.508;10.476;2022-10-17T13:21:50;16.50;;;4.00;;
37841;SDS011;23682;53.508;10.476;2022-10-17T13:24:31;6.30;;;3.38;;
37841;SDS011;23682;53.508;10.476;2022-10-17T13:27:00;7.43;;;3.05;;
37841;SDS011;23682;53.508;10.476;2022-10-17T13:29:28;10.52;;;3.42;;
37841;SDS011;23682;53.508;10.476;2022-10-17T13:31:58;8.30;;;3.13;;
37841;SDS011;23682;53.508;10.476;2022-10-17T13:34:26;5.90;;;3.40;;
37841;SDS011;23682;53.508;10.476;2022-10-17T13:36:54;13.55;;;3.15;;
37841;SDS011;23682;53.508;10.476;2022-10-17T13:39:24;8.55;;;3.00;;
37841;SDS011;23682;53.508;10.476;2022-10-17T13:42:21;8.50;;;3.30;;
37841;SDS011;23682;53.508;10.476;2022-10-17T13:44:55;7.60;;;3.25;;
37841;SDS011;23682;53.508;10.476;2022-10-17T13:47:26;7.40;;;3.30;;
37841;SDS011;23682;53.508;10.476;2022-10-17T13:49:56;6.13;;;3.38;;
37841;SDS011;23682;53.508;10.476;2022-10-17T13:52:24;6.20;;;3.28;;
37841;SDS011;23682;53.508;10.476;2022-10-17T13:54:59;7.30;;;3.50;;
37841;SDS011;23682;53.508;10.476;2022-10-17T13:57:43;7.72;;;3.65;;
37841;SDS011;23682;53.508;10.476;2022-10-17T14:00:19;8.27;;;3.40;;
37841;SDS011;23682;53.508;10.476;2022-10-17T14:02:48;11.15;;;3.65;;
37841;SDS011;23682;53.508;10.476;2022-10-17T14:05:18;7.03;;;3.50;;
37841;SDS011;23682;53.508;10.476;2022-10-17T14:10:36;4.65;;;3.53;;
37841;SDS011;23682;53.508;10.476;2022-10-17T14:13:05;7.70;;;4.18;;
37841;SDS011;23682;53.508;10.476;2022-10-17T14:15:34;6.20;;;4.03;;
37841;SDS011;23682;53.508;10.476;2022-10-17T14:18:03;11.73;;;4.40;;
37841;SDS011;23682;53.508;10.476;2022-10-17T14:20:34;6.55;;;4.47;;
37841;SDS011;23682;53.508;10.476;2022-10-17T14:23:27;10.13;;;5.00;;
37841;SDS011;23682;53.508;10.476;2022-10-17T14:26:17;9.35;;;5.78;;
37841;SDS011;23682;53.508;10.476;2022-10-17T14:28:49;12.38;;;6.20;;
37841;SDS011;23682;53.508;10.476;2022-10-17T14:31:31;8.95;;;6.55;;
37841;SDS011;23682;53.508;10.476;2022-10-17T14:34:00;13.10;;;7.20;;
37841;SDS011;23682;53.508;10.476;2022-10-17T14:36:30;12.02;;;6.38;;
37841;SDS011;23682;53.508;10.476;2022-10-17T14:39:05;9.32;;;6.35;;
37841;SDS011;23682;53.508;10.476;2022-10-17T14:41:42;15.48;;;7.13;;
37841;SDS011;23682;53.508;10.476;2022-10-17T14:44:16;9.45;;;7.28;;
37841;SDS011;23682;53.508;10.476;2022-10-17T14:46:46;12.15;;;6.50;;
37841;SDS011;23682;53.508;10.476;2022-10-17T14:54:54;10.60;;;7.50;;
37841;SDS011;23682;53.508;10.476;2022-10-17T14:57:38;12.75;;;6.65;;
37841;SDS011;23682;53.508;10.476;2022-10-17T15:00:09;12.27;;;7.97;;
37841;SDS011;23682;53.508;10.476;2022-10-17T15:02:40;9.50;;;7.25;;
37841;SDS011;23682;53.508;10.476;2022-10-17T15:05:07;11.70;;;7.82;;
37841;SDS011;23682;53.508;10.476;2022-10-17T15:07:38;12.52;;;7.47;;
37841;SDS011;23682;53.508;10.476;2022-10-17T15:10:06;11.43;;;7.40;;
37841;SDS011;23682;53.508;10.476;2022-10-17T15:12:45;8.27;;;7.43;;
37841;SDS011;23682;53.508;10.476;2022-10-17T15:15:25;16.02;;;8.57;;
37841;SDS011;23682;53.508;10.476;2022-10-17T15:17:53;10.80;;;8.15;;
37841;SDS011;23682;53.508;10.476;2022-10-17T15:20:21;13.75;;;7.50;;
37841;SDS011;23682;53.508;10.476;2022-10-17T15:22:51;7.78;;;6.63;;
37841;SDS011;23682;53.508;10.476;2022-10-17T15:25:19;10.82;;;7.30;;
37841;SDS011;23682;53.508;10.476;2022-10-17T15:27:46;11.82;;;7.28;;
37841;SDS011;23682;53.508;10.476;2022-10-17T15:32:47;8.98;;;6.97;;
37841;SDS011;23682;53.508;10.476;2022-10-17T15:35:14;11.20;;;6.97;;
37841;SDS011;23682;53.508;10.476;2022-10-17T15:37:42;9.57;;;6.60;;
37841;SDS011;23682;53.508;10.476;2022-10-17T15:40:12;10.77;;;7.95;;
37841;SDS011;23682;53.508;10.476;2022-10-17T15:42:48;8.70;;;7.18;;
37841;SDS011;23682;53.508;10.476;2022-10-17T15:45:16;9.05;;;6.97;;
37841;SDS011;23682;53.508;10.476;2022-10-17T15:47:50;9.77;;;7.18;;
37841;SDS011;23682;53.508;10.476;2022-10-17T15:50:21;10.70;;;7.18;;
37841;SDS011;23682;53.508;10.476;2022-10-17T15:52:48;9.60;;;7.50;;
37841;SDS011;23682;53.508;10.476;2022-10-17T15:55:18;11.80;;;8.18;;
37841;SDS011;23682;53.508;10.476;2022-10-17T15:57:46;10.27;;;7.90;;
37841;SDS011;23682;53.508;10.476;2022-10-17T16:00:21;11.15;;;8.15;;
37841;SDS011;23682;53.508;10.476;2022-10-17T16:02:49;12.02;;;8.63;;
37841;SDS011;23682;53.508;10.476;2022-10-17T16:05:20;10.98;;;8.25;;
37841;SDS011;23682;53.508;10.476;2022-10-17T16:07:51;10.95;;;8.20;;
37841;SDS011;23682;53.508;10.476;2022-10-17T16:10:19;10.98;;;9.45;;
37841;SDS011;23682;53.508;10.476;2022-10-17T16:12:47;12.75;;;9.43;;
37841;SDS011;23682;53.508;10.476;2022-10-17T16:15:19;11.82;;;10.13;;
37841;SDS011;23682;53.508;10.476;2022-10-17T16:17:48;15.00;;;10.20;;
37841;SDS011;23682;53.508;10.476;2022-10-17T16:20:16;13.95;;;10.07;;
37841;SDS011;23682;53.508;10.476;2022-10-17T16:22:44;14.73;;;10.32;;
37841;SDS011;23682;53.508;10.476;2022-10-17T16:25:18;13.75;;;10.90;;
37841;SDS011;23682;53.508;10.476;2022-10-17T16:27:47;13.38;;;10.35;;
37841;SDS011;23682;53.508;10.476;2022-10-17T16:30:16;16.80;;;10.65;;
37841;SDS011;23682;53.508;10.476;2022-10-17T16:32:44;17.45;;;10.93;;
37841;SDS011;23682;53.508;10.476;2022-10-17T16:35:15;17.63;;;11.57;;
37841;SDS011;23682;53.508;10.476;2022-10-17T16:37:44;15.18;;;11.85;;
37841;SDS011;23682;53.508;10.476;2022-10-17T16:40:11;21.10;;;12.25;;
37841;SDS011;23682;53.508;10.476;2022-10-17T16:42:38;18.10;;;11.82;;
37841;SDS011;23682;53.508;10.476;2022-10-17T16:45:05;16.67;;;11.52;;
37841;SDS011;23682;53.508;10.476;2022-10-17T16:47:32;21.30;;;12.60;;
37841;SDS011;23682;53.508;10.476;2022-10-17T16:49:59;15.48;;;11.48;;
37841;SDS011;23682;53.508;10.476;2022-10-17T16:52:25;16.75;;;11.98;;
37841;SDS011;23682;53.508;10.476;2022-10-17T16:54:52;16.95;;;12.30;;
37841;SDS011;23682;53.508;10.476;2022-10-17T16:57:19;19.65;;;13.25;;
37841;SDS011;23682;53.508;10.476;2022-10-17T16:59:46;19.40;;;13.02;;
37841;SDS011;23682;53.508;10.476;2022-10-17T17:02:13;21.42;;;12.80;;
37841;SDS011;23682;53.508;10.476;2022-10-17T17:04:45;21.20;;;13.90;;
37841;SDS011;23682;53.508;10.476;2022-10-17T17:07:12;18.92;;;12.55;;